Time,TemperatureF,DewpointF,PressureIn,WindDirection,WindDirectionDegrees,WindSpeedMPH,WindSpeedGustMPH,Humidity,HourlyPrecipIn,Conditions,Clouds,dailyrainin,SolarRadiationWatts/m^2,SoftwareType,DateUTC
2013-01-17 00:03:00,38.5,33.8,30.28,WNW,294,0.0,-999.0,83,0.00,,,0.00,0,Wunderground v.1.15,2013-01-17 08:03:00,
2013-01-17 00:08:00,38.2,33.5,30.28,WNW,294,0.0,-999.0,83,0.00,,,0.00,0,Wunderground v.1.15,2013-01-17 08:08:00,
2013-01-17 00:13:00,38.0,33.3,30.28,WNW,294,0.0,-999.0,83,0.00,,,0.00,0,Wunderground v.1.15,2013-01-17 08:13:00,
2013-01-17 00:18:00,38.0,33.3,30.28,WNW,294,0.0,-999.0,83,0.00,,,0.00,0,Wunderground v.1.15,2013-01-17 08:18:00,
2013-01-17 00:24:00,37.4,32.7,30.28,WNW,294,0.0,-999.0,83,0.00,,,0.00,0,Wunderground v.1.15,2013-01-17 08:24:00,
2013-01-17 00:30:00,37.2,32.8,30.28,WNW,294,0.0,-999.0,84,0.00,,,0.00,0,Wunderground v.1.15,2013-01-17 08:30:00,
2013-01-17 00:36:00,37.4,33.0,30.28,WNW,294,0.0,-999.0,84,0.00,,,0.00,0,Wunderground v.1.15,2013-01-17 08:36:00,
2013-01-17 00:41:00,37.4,33.0,30.28,WNW,294,0.0,-999.0,84,0.00,,,0.00,0,Wunderground v.1.15,2013-01-17 08:41:00,
2013-01-17 00:48:00,37.5,33.4,30.28,WNW,294,0.0,-999.0,85,0.00,,,0.00,0,Wunderground v.1.15,2013-01-17 08:48:00,
2013-01-17 00:53:00,37.4,33.0,30.28,WNW,294,0.0,-999.0,84,0.00,,,0.00,0,Wunderground v.1.15,2013-01-17 08:53:00,
2013-01-17 00:59:00,36.8,32.4,30.28,WNW,294,0.0,-999.0,84,0.00,,,0.00,0,Wunderground v.1.15,2013-01-17 08:59:00,
2013-01-17 01:05:00,36.7,32.6,30.28,WNW,294,0.0,-999.0,85,0.00,,,0.00,0,Wunderground v.1.15,2013-01-17 09:05:00,
2013-01-17 01:11:00,36.4,32.3,30.28,WNW,294,0.0,-999.0,85,0.00,,,0.00,0,Wunderground v.1.15,2013-01-17 09:11:00,
2013-01-17 01:17:00,35.9,31.8,30.28,WNW,294,0.0,-999.0,85,0.00,,,0.00,0,Wunderground v.1.15,2013-01-17 09:17:00,
2013-01-17 01:23:00,35.6,31.8,30.28,WNW,294,0.0,-999.0,86,0.00,,,0.00,0,Wunderground v.1.15,2013-01-17 09:23:00,
2013-01-17 01:28:00,35.7,31.9,30.28,WNW,294,0.0,-999.0,86,0.00,,,0.00,0,Wunderground v.1.15,2013-01-17 09:28:00,
2013-01-17 01:34:00,35.9,31.8,30.29,WNW,294,0.0,-999.0,85,0.00,,,0.00,0,Wunderground v.1.15,2013-01-17 09:34:00,
2013-01-17 01:40:00,36.0,31.9,30.28,WNW,294,0.0,-999.0,85,0.00,,,0.00,0,Wunderground v.1.15,2013-01-17 09:40:00,
2013-01-17 01:48:00,35.9,31.8,30.28,WNW,294,0.0,-999.0,85,0.00,,,0.00,0,Wunderground v.1.15,2013-01-17 09:48:00,
2013-01-17 01:53:00,35.8,31.7,30.28,WNW,294,0.0,-999.0,85,0.00,,,0.00,0,Wunderground v.1.15,2013-01-17 09:53:00,
2013-01-17 01:58:00,35.4,31.0,30.28,WNW,294,0.0,-999.0,84,0.00,,,0.00,0,Wunderground v.1.15,2013-01-17 09:58:00,
2013-01-17 02:04:00,35.0,30.9,30.28,WNW,294,0.0,-999.0,85,0.00,,,0.00,0,Wunderground v.1.15,2013-01-17 10:04:00,
2013-01-17 02:10:00,35.0,31.2,30.28,WNW,294,0.0,-999.0,86,0.00,,,0.00,0,Wunderground v.1.15,2013-01-17 10:10:00,
2013-01-17 02:16:00,35.3,31.5,30.28,WNW,294,0.0,-999.0,86,0.00,,,0.00,0,Wunderground v.1.15,2013-01-17 10:16:00,
2013-01-17 02:21:00,35.5,31.7,30.28,WNW,294,0.0,-999.0,86,0.00,,,0.00,0,Wunderground v.1.15,2013-01-17 10:21:00,
2013-01-17 02:26:00,35.4,31.3,30.28,WNW,294,0.0,-999.0,85,0.00,,,0.00,0,Wunderground v.1.15,2013-01-17 10:26:00,
2013-01-17 02:31:00,35.5,31.4,30.28,WNW,294,0.0,-999.0,85,0.00,,,0.00,0,Wunderground v.1.15,2013-01-17 10:31:00,
2013-01-17 02:36:00,35.4,31.3,30.28,WNW,294,0.0,-999.0,85,0.00,,,0.00,0,Wunderground v.1.15,2013-01-17 10:36:00,
2013-01-17 02:41:00,35.2,31.1,30.28,WNW,294,0.0,-999.0,85,0.00,,,0.00,0,Wunderground v.1.15,2013-01-17 10:41:00,
2013-01-17 02:46:00,35.0,30.9,30.28,WNW,294,0.0,-999.0,85,0.00,,,0.00,0,Wunderground v.1.15,2013-01-17 10:46:00,
2013-01-17 02:51:00,35.1,31.0,30.28,WNW,294,0.0,-999.0,85,0.00,,,0.00,0,Wunderground v.1.15,2013-01-17 10:51:00,
2013-01-17 02:56:00,35.0,30.9,30.28,WNW,294,0.0,-999.0,85,0.00,,,0.00,0,Wunderground v.1.15,2013-01-17 10:56:00,
2013-01-17 03:01:00,35.0,30.9,30.28,WNW,294,0.0,-999.0,85,0.00,,,0.00,0,Wunderground v.1.15,2013-01-17 11:01:00,
2013-01-17 03:06:00,35.0,30.9,30.28,WNW,294,0.0,-999.0,85,0.00,,,0.00,0,Wunderground v.1.15,2013-01-17 11:06:00,
2013-01-17 03:11:00,34.9,30.6,30.28,WNW,294,0.0,-999.0,84,0.00,,,0.00,0,Wunderground v.1.15,2013-01-17 11:11:00,
2013-01-17 03:16:00,34.8,30.8,30.28,WNW,294,0.0,-999.0,85,0.00,,,0.00,0,Wunderground v.1.15,2013-01-17 11:16:00,
2013-01-17 03:21:00,34.9,30.8,30.28,WNW,294,0.0,-999.0,85,0.00,,,0.00,0,Wunderground v.1.15,2013-01-17 11:21:00,
2013-01-17 03:26:00,34.6,30.3,30.27,WNW,294,0.0,-999.0,84,0.00,,,0.00,0,Wunderground v.1.15,2013-01-17 11:26:00,
2013-01-17 03:31:00,33.5,29.5,30.27,WNW,294,0.0,-999.0,85,0.00,,,0.00,0,Wunderground v.1.15,2013-01-17 11:31:00,
2013-01-17 03:37:00,33.1,29.4,30.27,WNW,294,0.0,-999.0,86,0.00,,,0.00,0,Wunderground v.1.15,2013-01-17 11:37:00,
2013-01-17 03:42:00,32.9,29.5,30.27,WNW,294,0.0,-999.0,87,0.00,,,0.00,0,Wunderground v.1.15,2013-01-17 11:42:00,
2013-01-17 03:48:00,33.3,30.1,30.27,WNW,294,0.0,-999.0,88,0.00,,,0.00,0,Wunderground v.1.15,2013-01-17 11:48:00,
2013-01-17 03:53:00,33.7,30.2,30.27,WNW,294,0.0,-999.0,87,0.00,,,0.00,0,Wunderground v.1.15,2013-01-17 11:53:00,
2013-01-17 03:58:00,33.8,30.3,30.27,WNW,294,0.0,-999.0,87,0.00,,,0.00,0,Wunderground v.1.15,2013-01-17 11:58:00,
2013-01-17 04:03:00,33.9,30.4,30.27,WNW,294,0.0,-999.0,87,0.00,,,0.00,0,Wunderground v.1.15,2013-01-17 12:03:00,
2013-01-17 04:08:00,33.9,30.4,30.27,WNW,294,0.0,-999.0,87,0.00,,,0.00,0,Wunderground v.1.15,2013-01-17 12:08:00,
2013-01-17 04:13:00,33.8,30.3,30.27,WNW,294,0.0,-999.0,87,0.00,,,0.00,0,Wunderground v.1.15,2013-01-17 12:13:00,
2013-01-17 04:18:00,33.8,30.3,30.27,WNW,294,0.0,-999.0,87,0.00,,,0.00,0,Wunderground v.1.15,2013-01-17 12:18:00,
2013-01-17 04:23:00,33.8,30.1,30.27,WNW,294,0.0,-999.0,86,0.00,,,0.00,0,Wunderground v.1.15,2013-01-17 12:23:00,
2013-01-17 04:28:00,33.8,30.1,30.27,WNW,294,0.0,-999.0,86,0.00,,,0.00,0,Wunderground v.1.15,2013-01-17 12:28:00,
2013-01-17 04:33:00,33.9,30.2,30.27,WNW,294,0.0,-999.0,86,0.00,,,0.00,0,Wunderground v.1.15,2013-01-17 12:33:00,
2013-01-17 04:38:00,33.9,30.2,30.26,WNW,294,0.0,-999.0,86,0.00,,,0.00,0,Wunderground v.1.15,2013-01-17 12:38:00,
2013-01-17 04:43:00,33.9,30.4,30.26,WNW,294,0.0,-999.0,87,0.00,,,0.00,0,Wunderground v.1.15,2013-01-17 12:43:00,
2013-01-17 04:48:00,33.3,29.6,30.27,WNW,294,0.0,-999.0,86,0.00,,,0.00,0,Wunderground v.1.15,2013-01-17 12:48:00,
2013-01-17 04:53:00,33.4,29.9,30.27,WNW,294,0.0,-999.0,87,0.00,,,0.00,0,Wunderground v.1.15,2013-01-17 12:53:00,
2013-01-17 04:58:00,33.5,30.0,30.26,WNW,294,0.0,-999.0,87,0.00,,,0.00,0,Wunderground v.1.15,2013-01-17 12:58:00,
2013-01-17 05:03:00,33.6,30.1,30.26,WNW,294,1.0,-999.0,87,0.00,,,0.00,0,Wunderground v.1.15,2013-01-17 13:03:00,
2013-01-17 05:08:00,33.6,30.1,30.27,WNW,294,0.0,-999.0,87,0.00,,,0.00,0,Wunderground v.1.15,2013-01-17 13:08:00,
2013-01-17 05:13:00,33.6,30.1,30.27,WNW,294,0.0,-999.0,87,0.00,,,0.00,0,Wunderground v.1.15,2013-01-17 13:13:00,
2013-01-17 05:18:00,33.4,29.9,30.27,WNW,294,0.0,-999.0,87,0.00,,,0.00,0,Wunderground v.1.15,2013-01-17 13:18:00,
2013-01-17 05:23:00,33.4,29.9,30.26,WNW,294,0.0,-999.0,87,0.00,,,0.00,0,Wunderground v.1.15,2013-01-17 13:23:00,
2013-01-17 05:28:00,33.4,30.2,30.26,WNW,294,0.0,-999.0,88,0.00,,,0.00,0,Wunderground v.1.15,2013-01-17 13:28:00,
2013-01-17 05:33:00,33.2,30.0,30.26,WNW,294,0.0,-999.0,88,0.00,,,0.00,0,Wunderground v.1.15,2013-01-17 13:33:00,
2013-01-17 05:38:00,32.8,29.4,30.26,WNW,294,0.0,-999.0,87,0.00,,,0.00,0,Wunderground v.1.15,2013-01-17 13:38:00,
2013-01-17 05:43:00,32.8,29.6,30.26,WNW,294,0.0,-999.0,88,0.00,,,0.00,0,Wunderground v.1.15,2013-01-17 13:43:00,
2013-01-17 05:48:00,33.0,29.8,30.26,WNW,294,0.0,-999.0,88,0.00,,,0.00,0,Wunderground v.1.15,2013-01-17 13:48:00,
2013-01-17 05:53:00,33.2,29.8,30.26,WNW,294,0.0,-999.0,87,0.00,,,0.00,0,Wunderground v.1.15,2013-01-17 13:53:00,
2013-01-17 05:58:00,33.3,29.8,30.26,WNW,294,0.0,-999.0,87,0.00,,,0.00,0,Wunderground v.1.15,2013-01-17 13:58:00,
2013-01-17 06:03:00,33.4,29.9,30.26,WNW,294,0.0,-999.0,87,0.00,,,0.00,0,Wunderground v.1.15,2013-01-17 14:03:00,
2013-01-17 06:08:00,33.3,29.8,30.26,WNW,294,0.0,-999.0,87,0.00,,,0.00,0,Wunderground v.1.15,2013-01-17 14:08:00,
2013-01-17 06:13:00,33.2,29.8,30.26,WNW,294,0.0,-999.0,87,0.00,,,0.00,0,Wunderground v.1.15,2013-01-17 14:13:00,
2013-01-17 06:18:00,32.9,29.5,30.26,WNW,294,0.0,-999.0,87,0.00,,,0.00,0,Wunderground v.1.15,2013-01-17 14:18:00,
2013-01-17 06:23:00,32.4,29.0,30.26,WNW,294,0.0,-999.0,87,0.00,,,0.00,0,Wunderground v.1.15,2013-01-17 14:23:00,
2013-01-17 06:28:00,32.3,28.9,30.26,WNW,294,0.0,-999.0,87,0.00,,,0.00,0,Wunderground v.1.15,2013-01-17 14:28:00,
2013-01-17 06:33:00,32.3,28.9,30.26,WNW,294,0.0,-999.0,87,0.00,,,0.00,0,Wunderground v.1.15,2013-01-17 14:33:00,
2013-01-17 06:38:00,31.8,28.7,30.26,WNW,294,0.0,-999.0,88,0.00,,,0.00,0,Wunderground v.1.15,2013-01-17 14:38:00,
2013-01-17 06:43:00,31.7,28.6,30.26,WNW,294,0.0,-999.0,88,0.00,,,0.00,0,Wunderground v.1.15,2013-01-17 14:43:00,
2013-01-17 06:48:00,31.6,28.5,30.26,WNW,294,0.0,-999.0,88,0.00,,,0.00,0,Wunderground v.1.15,2013-01-17 14:48:00,
2013-01-17 06:53:00,31.7,28.6,30.26,WNW,294,0.0,-999.0,88,0.00,,,0.00,0,Wunderground v.1.15,2013-01-17 14:53:00,
2013-01-17 06:58:00,31.7,28.6,30.26,WNW,294,0.0,-999.0,88,0.00,,,0.00,0,Wunderground v.1.15,2013-01-17 14:58:00,
2013-01-17 07:03:00,31.8,28.9,30.26,WNW,294,0.0,-999.0,89,0.00,,,0.00,0,Wunderground v.1.15,2013-01-17 15:03:00,
2013-01-17 07:08:00,32.1,28.9,30.26,WNW,294,0.0,-999.0,88,0.00,,,0.00,0,Wunderground v.1.15,2013-01-17 15:08:00,
2013-01-17 07:13:00,32.1,28.9,30.27,WNW,294,0.0,-999.0,88,0.00,,,0.00,0,Wunderground v.1.15,2013-01-17 15:13:00,
2013-01-17 07:18:00,32.0,28.8,30.27,WNW,294,0.0,-999.0,88,0.00,,,0.00,5,Wunderground v.1.15,2013-01-17 15:18:00,
2013-01-17 07:23:00,32.0,28.8,30.27,WNW,294,0.0,-999.0,88,0.00,,,0.00,7,Wunderground v.1.15,2013-01-17 15:23:00,
2013-01-17 07:28:00,32.2,28.8,30.27,WNW,294,0.0,-999.0,87,0.00,,,0.00,11,Wunderground v.1.15,2013-01-17 15:28:00,
2013-01-17 07:33:00,32.4,29.0,30.27,WNW,294,0.0,-999.0,87,0.00,,,0.00,14,Wunderground v.1.15,2013-01-17 15:33:00,
2013-01-17 07:38:00,32.6,29.2,30.27,WNW,294,0.0,-999.0,87,0.00,,,0.00,16,Wunderground v.1.15,2013-01-17 15:38:00,
2013-01-17 07:43:00,32.8,29.4,30.27,WNW,294,0.0,-999.0,87,0.00,,,0.00,19,Wunderground v.1.15,2013-01-17 15:43:00,
2013-01-17 07:48:00,32.8,29.1,30.27,WNW,294,0.0,-999.0,86,0.00,,,0.00,21,Wunderground v.1.15,2013-01-17 15:48:00,
2013-01-17 07:53:00,33.5,29.8,30.27,WNW,294,0.0,-999.0,86,0.00,,,0.00,32,Wunderground v.1.15,2013-01-17 15:53:00,
2013-01-17 07:58:00,33.9,29.9,30.27,WNW,294,0.0,-999.0,85,0.00,,,0.00,42,Wunderground v.1.15,2013-01-17 15:58:00,
2013-01-17 08:03:00,34.1,29.8,30.28,WNW,294,0.0,-999.0,84,0.00,,,0.00,51,Wunderground v.1.15,2013-01-17 16:03:00,
2013-01-17 08:08:00,34.4,30.1,30.28,WNW,294,0.0,-999.0,84,0.00,,,0.00,63,Wunderground v.1.15,2013-01-17 16:08:00,
2013-01-17 08:13:00,34.7,30.1,30.28,WNW,294,0.0,-999.0,83,0.00,,,0.00,77,Wunderground v.1.15,2013-01-17 16:13:00,
2013-01-17 08:18:00,35.0,30.1,30.28,WNW,294,0.0,-999.0,82,0.00,,,0.00,91,Wunderground v.1.15,2013-01-17 16:18:00,
2013-01-17 08:23:00,35.1,30.2,30.28,WNW,294,0.0,-999.0,82,0.00,,,0.00,107,Wunderground v.1.15,2013-01-17 16:23:00,
2013-01-17 08:28:00,35.2,30.6,30.28,WNW,294,0.0,-999.0,83,0.00,,,0.00,123,Wunderground v.1.15,2013-01-17 16:28:00,
2013-01-17 08:33:00,35.3,30.7,30.29,WNW,294,0.0,-999.0,83,0.00,,,0.00,139,Wunderground v.1.15,2013-01-17 16:33:00,
2013-01-17 08:38:00,36.1,31.1,30.29,WNW,294,0.0,-999.0,82,0.00,,,0.00,156,Wunderground v.1.15,2013-01-17 16:38:00,
2013-01-17 08:43:00,36.4,31.1,30.29,WNW,294,0.0,-999.0,81,0.00,,,0.00,171,Wunderground v.1.15,2013-01-17 16:43:00,
2013-01-17 08:48:00,36.8,31.2,30.29,WNW,294,0.0,-999.0,80,0.00,,,0.00,183,Wunderground v.1.15,2013-01-17 16:48:00,
2013-01-17 08:53:00,37.4,31.8,30.29,WNW,294,0.0,-999.0,80,0.00,,,0.00,204,Wunderground v.1.15,2013-01-17 16:53:00,
2013-01-17 08:58:00,38.4,32.1,30.29,WNW,294,0.0,-999.0,78,0.00,,,0.00,221,Wunderground v.1.15,2013-01-17 16:58:00,
2013-01-17 09:03:00,38.9,31.6,30.29,WNW,294,0.0,-999.0,75,0.00,,,0.00,237,Wunderground v.1.15,2013-01-17 17:03:00,
2013-01-17 09:08:00,39.2,31.9,30.29,WNW,294,0.0,-999.0,75,0.00,,,0.00,255,Wunderground v.1.15,2013-01-17 17:08:00,
2013-01-17 09:13:00,39.7,32.1,30.29,WNW,294,0.0,-999.0,74,0.00,,,0.00,269,Wunderground v.1.15,2013-01-17 17:13:00,
2013-01-17 09:18:00,40.0,32.4,30.29,WNW,294,0.0,-999.0,74,0.00,,,0.00,281,Wunderground v.1.15,2013-01-17 17:18:00,
2013-01-17 09:23:00,40.5,32.9,30.29,WNW,294,0.0,-999.0,74,0.00,,,0.00,294,Wunderground v.1.15,2013-01-17 17:23:00,
2013-01-17 09:28:00,40.4,32.8,30.30,WNW,294,1.0,-999.0,74,0.00,,,0.00,306,Wunderground v.1.15,2013-01-17 17:28:00,
2013-01-17 09:33:00,40.8,33.5,30.30,WNW,294,0.0,-999.0,75,0.00,,,0.00,320,Wunderground v.1.15,2013-01-17 17:33:00,
2013-01-17 09:38:00,41.4,34.1,30.30,WNW,294,1.0,-999.0,75,0.00,,,0.00,332,Wunderground v.1.15,2013-01-17 17:38:00,
2013-01-17 09:43:00,41.6,34.6,30.30,WNW,294,0.0,-999.0,76,0.00,,,0.00,345,Wunderground v.1.15,2013-01-17 17:43:00,
2013-01-17 09:48:00,42.2,34.8,30.30,WNW,294,0.0,-999.0,75,0.00,,,0.00,359,Wunderground v.1.15,2013-01-17 17:48:00,
2013-01-17 09:53:00,42.9,35.2,30.30,WNW,294,0.0,-999.0,74,0.00,,,0.00,371,Wunderground v.1.15,2013-01-17 17:53:00,
2013-01-17 09:58:00,43.2,35.5,30.29,WNW,294,1.0,-999.0,74,0.00,,,0.00,383,Wunderground v.1.15,2013-01-17 17:58:00,
2013-01-17 10:03:00,43.3,35.6,30.29,WNW,292,0.0,-999.0,74,0.00,,,0.00,392,Wunderground v.1.15,2013-01-17 18:03:00,
2013-01-17 10:08:00,43.7,35.6,30.29,West,274,0.0,-999.0,73,0.00,,,0.00,404,Wunderground v.1.15,2013-01-17 18:08:00,
2013-01-17 10:14:00,44.4,35.6,30.29,West,274,2.0,-999.0,71,0.00,,,0.00,415,Wunderground v.1.15,2013-01-17 18:14:00,
2013-01-17 10:19:00,45.0,36.2,30.29,West,274,0.0,-999.0,71,0.00,,,0.00,425,Wunderground v.1.15,2013-01-17 18:19:00,
2013-01-17 10:24:00,45.5,36.3,30.29,West,274,1.0,-999.0,70,0.00,,,0.00,434,Wunderground v.1.15,2013-01-17 18:24:00,
2013-01-17 10:29:00,46.0,36.4,30.29,West,274,0.0,-999.0,69,0.00,,,0.00,445,Wunderground v.1.15,2013-01-17 18:29:00,
2013-01-17 10:34:00,46.4,36.4,30.29,West,274,0.0,-999.0,68,0.00,,,0.00,454,Wunderground v.1.15,2013-01-17 18:34:00,
2013-01-17 10:39:00,46.9,36.9,30.28,West,274,0.0,-999.0,68,0.00,,,0.00,464,Wunderground v.1.15,2013-01-17 18:39:00,
2013-01-17 10:43:00,47.4,36.6,30.28,West,274,0.0,-999.0,66,0.00,,,0.00,471,Wunderground v.1.15,2013-01-17 18:43:00,
2013-01-17 10:48:00,47.7,36.5,30.28,West,274,0.0,-999.0,65,0.00,,,0.00,478,Wunderground v.1.15,2013-01-17 18:48:00,
2013-01-17 10:53:00,47.7,36.9,30.28,West,274,0.0,-999.0,66,0.00,,,0.00,485,Wunderground v.1.15,2013-01-17 18:53:00,
2013-01-17 10:58:00,47.9,36.7,30.27,West,274,0.0,-999.0,65,0.00,,,0.00,492,Wunderground v.1.15,2013-01-17 18:58:00,
2013-01-17 11:04:00,48.3,37.1,30.27,West,274,1.0,-999.0,65,0.00,,,0.00,501,Wunderground v.1.15,2013-01-17 19:04:00,
2013-01-17 11:09:00,48.6,37.0,30.27,West,274,0.0,-999.0,64,0.00,,,0.00,508,Wunderground v.1.15,2013-01-17 19:09:00,
2013-01-17 11:14:00,48.7,37.1,30.27,West,274,0.0,-999.0,64,0.00,,,0.00,513,Wunderground v.1.15,2013-01-17 19:14:00,
2013-01-17 11:19:00,48.8,37.2,30.27,West,274,1.0,-999.0,64,0.00,,,0.00,517,Wunderground v.1.15,2013-01-17 19:19:00,
2013-01-17 11:24:00,49.5,37.4,30.26,West,274,0.0,-999.0,63,0.00,,,0.00,524,Wunderground v.1.15,2013-01-17 19:24:00,
2013-01-17 11:29:00,49.6,37.1,30.26,West,274,3.0,-999.0,62,0.00,,,0.00,529,Wunderground v.1.15,2013-01-17 19:29:00,
2013-01-17 11:34:00,49.2,36.7,30.26,West,274,0.0,-999.0,62,0.00,,,0.00,533,Wunderground v.1.15,2013-01-17 19:34:00,
2013-01-17 11:39:00,50.0,37.5,30.26,West,274,0.0,-999.0,62,0.00,,,0.00,534,Wunderground v.1.15,2013-01-17 19:39:00,
2013-01-17 11:44:00,50.2,36.8,30.26,West,274,0.0,-999.0,60,0.00,,,0.00,540,Wunderground v.1.15,2013-01-17 19:44:00,
2013-01-17 11:49:00,50.4,36.2,30.25,West,274,0.0,-999.0,58,0.00,,,0.00,545,Wunderground v.1.15,2013-01-17 19:49:00,
2013-01-17 11:54:00,50.7,36.0,30.25,West,274,0.0,-999.0,57,0.00,,,0.00,547,Wunderground v.1.15,2013-01-17 19:54:00,
2013-01-17 11:59:00,51.1,36.4,30.24,West,274,0.0,-999.0,57,0.00,,,0.00,550,Wunderground v.1.15,2013-01-17 19:59:00,
2013-01-17 12:04:00,51.3,36.6,30.24,West,274,0.0,-999.0,57,0.00,,,0.00,548,Wunderground v.1.15,2013-01-17 20:04:00,
2013-01-17 12:09:00,51.9,37.1,30.24,West,274,0.0,-999.0,57,0.00,,,0.00,552,Wunderground v.1.15,2013-01-17 20:09:00,
2013-01-17 12:14:00,52.5,36.8,30.23,West,274,0.0,-999.0,55,0.00,,,0.00,555,Wunderground v.1.15,2013-01-17 20:14:00,
2013-01-17 12:20:00,53.0,36.3,30.23,WNW,283,1.0,-999.0,53,0.00,,,0.00,552,Wunderground v.1.15,2013-01-17 20:20:00,
2013-01-17 12:25:00,53.3,36.1,30.23,WNW,283,0.0,-999.0,52,0.00,,,0.00,554,Wunderground v.1.15,2013-01-17 20:25:00,
2013-01-17 12:30:00,53.3,36.1,30.22,WNW,283,0.0,-999.0,52,0.00,,,0.00,554,Wunderground v.1.15,2013-01-17 20:30:00,
2013-01-17 12:35:00,53.8,36.6,30.22,WNW,284,2.0,-999.0,52,0.00,,,0.00,552,Wunderground v.1.15,2013-01-17 20:35:00,
2013-01-17 12:39:00,53.6,36.4,30.22,WNW,283,0.0,-999.0,52,0.00,,,0.00,550,Wunderground v.1.15,2013-01-17 20:39:00,
2013-01-17 12:44:00,54.5,37.2,30.22,WNW,283,0.0,-999.0,52,0.00,,,0.00,550,Wunderground v.1.15,2013-01-17 20:44:00,
2013-01-17 12:49:00,55.2,37.4,30.21,West,279,3.0,-999.0,51,0.00,,,0.00,550,Wunderground v.1.15,2013-01-17 20:49:00,
2013-01-17 12:55:00,55.0,35.1,30.21,West,278,0.0,-999.0,47,0.00,,,0.00,547,Wunderground v.1.15,2013-01-17 20:55:00,
2013-01-17 13:00:00,55.4,36.0,30.21,West,278,0.0,-999.0,48,0.00,,,0.00,543,Wunderground v.1.15,2013-01-17 21:00:00,
2013-01-17 13:05:00,55.4,36.0,30.21,West,278,0.0,-999.0,48,0.00,,,0.00,540,Wunderground v.1.15,2013-01-17 21:05:00,
2013-01-17 13:10:00,55.9,35.4,30.20,West,275,1.0,-999.0,46,0.00,,,0.00,534,Wunderground v.1.15,2013-01-17 21:10:00,
2013-01-17 13:15:00,56.5,36.0,30.20,West,275,0.0,-999.0,46,0.00,,,0.00,533,Wunderground v.1.15,2013-01-17 21:15:00,
2013-01-17 13:20:00,56.3,35.8,30.20,West,275,0.0,-999.0,46,0.00,,,0.00,529,Wunderground v.1.15,2013-01-17 21:20:00,
2013-01-17 13:25:00,56.7,36.1,30.20,West,275,2.0,-999.0,46,0.00,,,0.00,520,Wunderground v.1.15,2013-01-17 21:25:00,
2013-01-17 13:30:00,57.3,35.6,30.19,West,275,0.0,-999.0,44,0.00,,,0.00,515,Wunderground v.1.15,2013-01-17 21:30:00,
2013-01-17 13:35:00,57.6,35.2,30.19,West,275,0.0,-999.0,43,0.00,,,0.00,508,Wunderground v.1.15,2013-01-17 21:35:00,
2013-01-17 13:40:00,57.3,35.6,30.19,West,275,0.0,-999.0,44,0.00,,,0.00,501,Wunderground v.1.15,2013-01-17 21:40:00,
2013-01-17 13:45:00,57.5,34.6,30.19,West,278,0.0,-999.0,42,0.00,,,0.00,499,Wunderground v.1.15,2013-01-17 21:45:00,
2013-01-17 13:50:00,57.3,34.4,30.19,West,278,0.0,-999.0,42,0.00,,,0.00,490,Wunderground v.1.15,2013-01-17 21:50:00,
2013-01-17 13:55:00,58.0,34.4,30.18,West,278,0.0,-999.0,41,0.00,,,0.00,483,Wunderground v.1.15,2013-01-17 21:55:00,
2013-01-17 14:00:00,58.4,34.2,30.18,West,278,0.0,-999.0,40,0.00,,,0.00,475,Wunderground v.1.15,2013-01-17 22:00:00,
2013-01-17 14:05:00,58.2,33.3,30.18,West,278,0.0,-999.0,39,0.00,,,0.00,468,Wunderground v.1.15,2013-01-17 22:05:00,
2013-01-17 14:10:00,58.9,34.0,30.18,West,278,0.0,-999.0,39,0.00,,,0.00,461,Wunderground v.1.15,2013-01-17 22:10:00,
2013-01-17 14:15:00,59.3,33.7,30.18,West,278,0.0,-999.0,38,0.00,,,0.00,448,Wunderground v.1.15,2013-01-17 22:15:00,
2013-01-17 14:20:00,58.9,34.0,30.17,West,278,0.0,-999.0,39,0.00,,,0.00,441,Wunderground v.1.15,2013-01-17 22:20:00,
2013-01-17 14:25:00,59.2,32.9,30.17,West,278,0.0,-999.0,37,0.00,,,0.00,431,Wunderground v.1.15,2013-01-17 22:25:00,
2013-01-17 14:30:00,59.6,32.6,30.17,West,277,0.0,-999.0,36,0.00,,,0.00,418,Wunderground v.1.15,2013-01-17 22:30:00,
2013-01-17 14:35:00,59.5,33.9,30.17,West,277,0.0,-999.0,38,0.00,,,0.00,408,Wunderground v.1.15,2013-01-17 22:35:00,
2013-01-17 14:40:00,59.6,33.3,30.17,West,275,1.0,-999.0,37,0.00,,,0.00,396,Wunderground v.1.15,2013-01-17 22:40:00,
2013-01-17 14:45:00,59.5,33.9,30.17,West,275,0.0,-999.0,38,0.00,,,0.00,385,Wunderground v.1.15,2013-01-17 22:45:00,
2013-01-17 14:50:00,59.9,34.2,30.17,West,275,1.0,-999.0,38,0.00,,,0.00,373,Wunderground v.1.15,2013-01-17 22:50:00,
2013-01-17 14:55:00,59.9,33.5,30.17,West,275,0.0,-999.0,37,0.00,,,0.00,366,Wunderground v.1.15,2013-01-17 22:55:00,
2013-01-17 15:00:00,59.8,33.5,30.17,West,275,0.0,-999.0,37,0.00,,,0.00,352,Wunderground v.1.15,2013-01-17 23:00:00,
2013-01-17 15:05:00,60.1,33.7,30.17,West,275,1.0,-999.0,37,0.00,,,0.00,338,Wunderground v.1.15,2013-01-17 23:05:00,
2013-01-17 15:10:00,60.1,33.0,30.16,West,275,0.0,-999.0,36,0.00,,,0.00,327,Wunderground v.1.15,2013-01-17 23:10:00,
2013-01-17 15:15:00,60.4,33.3,30.16,West,275,0.0,-999.0,36,0.00,,,0.00,313,Wunderground v.1.15,2013-01-17 23:15:00,
2013-01-17 15:20:00,60.4,33.3,30.16,West,275,0.0,-999.0,36,0.00,,,0.00,297,Wunderground v.1.15,2013-01-17 23:20:00,
2013-01-17 15:25:00,60.3,32.5,30.16,West,275,0.0,-999.0,35,0.00,,,0.00,283,Wunderground v.1.15,2013-01-17 23:25:00,
2013-01-17 15:30:00,60.2,33.8,30.16,West,275,1.0,-999.0,37,0.00,,,0.00,265,Wunderground v.1.15,2013-01-17 23:30:00,
2013-01-17 15:35:00,60.7,34.3,30.16,West,275,0.0,-999.0,37,0.00,,,0.00,248,Wunderground v.1.15,2013-01-17 23:35:00,
2013-01-17 15:40:00,60.8,34.3,30.16,West,275,0.0,-999.0,37,0.00,,,0.00,229,Wunderground v.1.15,2013-01-17 23:40:00,
2013-01-17 15:45:00,60.7,33.6,30.17,West,275,0.0,-999.0,36,0.00,,,0.00,214,Wunderground v.1.15,2013-01-17 23:45:00,
2013-01-17 15:50:00,60.4,33.3,30.17,West,275,0.0,-999.0,36,0.00,,,0.00,176,Wunderground v.1.15,2013-01-17 23:50:00,
2013-01-17 15:55:00,60.8,34.3,30.17,West,275,0.0,-999.0,37,0.00,,,0.00,179,Wunderground v.1.15,2013-01-17 23:55:00,
2013-01-17 16:00:00,60.8,34.3,30.16,West,275,0.0,-999.0,37,0.00,,,0.00,162,Wunderground v.1.15,2013-01-18 00:00:00,
2013-01-17 16:05:00,60.4,34.0,30.16,West,275,0.0,-999.0,37,0.00,,,0.00,144,Wunderground v.1.15,2013-01-18 00:05:00,
2013-01-17 16:10:00,60.4,34.7,30.16,West,275,0.0,-999.0,38,0.00,,,0.00,125,Wunderground v.1.15,2013-01-18 00:10:00,
2013-01-17 16:15:00,60.4,35.9,30.16,West,275,0.0,-999.0,40,0.00,,,0.00,109,Wunderground v.1.15,2013-01-18 00:15:00,
2013-01-17 16:20:00,60.3,35.9,30.16,West,275,0.0,-999.0,40,0.00,,,0.00,93,Wunderground v.1.15,2013-01-18 00:20:00,
2013-01-17 16:25:00,60.3,35.2,30.16,West,275,0.0,-999.0,39,0.00,,,0.00,79,Wunderground v.1.15,2013-01-18 00:25:00,
2013-01-17 16:30:00,60.1,35.0,30.16,West,275,0.0,-999.0,39,0.00,,,0.00,65,Wunderground v.1.15,2013-01-18 00:30:00,
2013-01-17 16:35:00,59.9,34.9,30.16,West,275,0.0,-999.0,39,0.00,,,0.00,53,Wunderground v.1.15,2013-01-18 00:35:00,
2013-01-17 16:40:00,59.6,35.2,30.17,West,275,0.0,-999.0,40,0.00,,,0.00,40,Wunderground v.1.15,2013-01-18 00:40:00,
2013-01-17 16:45:00,59.4,35.7,30.17,West,275,0.0,-999.0,41,0.00,,,0.00,32,Wunderground v.1.15,2013-01-18 00:45:00,
2013-01-17 16:50:00,59.0,35.3,30.17,West,275,0.0,-999.0,41,0.00,,,0.00,23,Wunderground v.1.15,2013-01-18 00:50:00,
2013-01-17 16:56:00,58.7,35.7,30.17,West,275,0.0,-999.0,42,0.00,,,0.00,18,Wunderground v.1.15,2013-01-18 00:56:00,
2013-01-17 17:01:00,58.0,37.9,30.17,West,275,0.0,-999.0,47,0.00,,,0.00,12,Wunderground v.1.15,2013-01-18 01:01:00,
2013-01-17 17:06:00,57.3,38.3,30.17,West,275,0.0,-999.0,49,0.00,,,0.00,9,Wunderground v.1.15,2013-01-18 01:06:00,
2013-01-17 17:11:00,56.8,38.3,30.17,West,275,0.0,-999.0,50,0.00,,,0.00,5,Wunderground v.1.15,2013-01-18 01:11:00,
2013-01-17 17:16:00,56.4,38.5,30.17,West,275,0.0,-999.0,51,0.00,,,0.00,0,Wunderground v.1.15,2013-01-18 01:16:00,
2013-01-17 17:21:00,56.2,39.3,30.17,West,275,0.0,-999.0,53,0.00,,,0.00,0,Wunderground v.1.15,2013-01-18 01:21:00,
2013-01-17 17:26:00,55.1,39.2,30.17,West,275,0.0,-999.0,55,0.00,,,0.00,0,Wunderground v.1.15,2013-01-18 01:26:00,
2013-01-17 17:31:00,54.1,39.2,30.17,West,275,0.0,-999.0,57,0.00,,,0.00,0,Wunderground v.1.15,2013-01-18 01:31:00,
2013-01-17 17:36:00,54.1,39.2,30.17,West,275,0.0,-999.0,57,0.00,,,0.00,0,Wunderground v.1.15,2013-01-18 01:36:00,
2013-01-17 17:41:00,53.5,38.6,30.17,West,275,0.0,-999.0,57,0.00,,,0.00,0,Wunderground v.1.15,2013-01-18 01:41:00,
2013-01-17 17:46:00,53.2,38.8,30.17,West,275,0.0,-999.0,58,0.00,,,0.00,0,Wunderground v.1.15,2013-01-18 01:46:00,
2013-01-17 17:51:00,53.3,38.9,30.17,West,275,0.0,-999.0,58,0.00,,,0.00,0,Wunderground v.1.15,2013-01-18 01:51:00,
2013-01-17 17:56:00,53.1,39.1,30.17,West,275,0.0,-999.0,59,0.00,,,0.00,0,Wunderground v.1.15,2013-01-18 01:56:00,
2013-01-17 18:01:00,52.9,39.0,30.17,West,275,0.0,-999.0,59,0.00,,,0.00,0,Wunderground v.1.15,2013-01-18 02:01:00,
2013-01-17 18:06:00,51.9,38.9,30.17,West,275,0.0,-999.0,61,0.00,,,0.00,0,Wunderground v.1.15,2013-01-18 02:06:00,
2013-01-17 18:11:00,51.6,38.6,30.17,West,275,0.0,-999.0,61,0.00,,,0.00,0,Wunderground v.1.15,2013-01-18 02:11:00,
2013-01-17 18:16:00,51.3,38.7,30.17,West,275,0.0,-999.0,62,0.00,,,0.00,0,Wunderground v.1.15,2013-01-18 02:16:00,
2013-01-17 18:21:00,50.8,38.7,30.17,West,275,0.0,-999.0,63,0.00,,,0.00,0,Wunderground v.1.15,2013-01-18 02:21:00,
2013-01-17 18:26:00,50.5,38.4,30.17,West,275,0.0,-999.0,63,0.00,,,0.00,0,Wunderground v.1.15,2013-01-18 02:26:00,
2013-01-17 18:31:00,50.1,38.0,30.18,West,275,0.0,-999.0,63,0.00,,,0.00,0,Wunderground v.1.15,2013-01-18 02:31:00,
2013-01-17 18:36:00,49.7,38.4,30.17,West,275,0.0,-999.0,65,0.00,,,0.00,0,Wunderground v.1.15,2013-01-18 02:36:00,
2013-01-17 18:41:00,49.6,38.7,30.17,West,275,0.0,-999.0,66,0.00,,,0.00,0,Wunderground v.1.15,2013-01-18 02:41:00,
2013-01-17 18:46:00,49.7,38.8,30.17,West,275,0.0,-999.0,66,0.00,,,0.00,0,Wunderground v.1.15,2013-01-18 02:46:00,
2013-01-17 18:51:00,49.4,38.9,30.17,West,275,0.0,-999.0,67,0.00,,,0.00,0,Wunderground v.1.15,2013-01-18 02:51:00,
2013-01-17 18:56:00,49.2,38.3,30.17,West,275,0.0,-999.0,66,0.00,,,0.00,0,Wunderground v.1.15,2013-01-18 02:56:00,
2013-01-17 19:01:00,48.8,38.3,30.17,West,275,0.0,-999.0,67,0.00,,,0.00,0,Wunderground v.1.15,2013-01-18 03:01:00,
2013-01-17 19:06:00,48.6,38.5,30.17,West,275,0.0,-999.0,68,0.00,,,0.00,0,Wunderground v.1.15,2013-01-18 03:06:00,
2013-01-17 19:11:00,48.7,38.6,30.17,West,275,0.0,-999.0,68,0.00,,,0.00,0,Wunderground v.1.15,2013-01-18 03:11:00,
2013-01-17 19:16:00,48.8,38.7,30.17,West,275,0.0,-999.0,68,0.00,,,0.00,0,Wunderground v.1.15,2013-01-18 03:16:00,
2013-01-17 19:21:00,48.3,38.2,30.17,West,275,0.0,-999.0,68,0.00,,,0.00,0,Wunderground v.1.15,2013-01-18 03:21:00,
2013-01-17 19:26:00,47.9,38.2,30.17,West,275,0.0,-999.0,69,0.00,,,0.00,0,Wunderground v.1.15,2013-01-18 03:26:00,
2013-01-17 19:31:00,47.6,37.9,30.17,West,275,0.0,-999.0,69,0.00,,,0.00,0,Wunderground v.1.15,2013-01-18 03:31:00,
2013-01-17 19:36:00,47.3,37.6,30.17,West,275,0.0,-999.0,69,0.00,,,0.00,0,Wunderground v.1.15,2013-01-18 03:36:00,
2013-01-17 19:41:00,47.2,37.5,30.17,West,275,0.0,-999.0,69,0.00,,,0.00,0,Wunderground v.1.15,2013-01-18 03:41:00,
2013-01-17 19:46:00,47.0,37.7,30.17,West,275,0.0,-999.0,70,0.00,,,0.00,0,Wunderground v.1.15,2013-01-18 03:46:00,
2013-01-17 19:51:00,46.7,37.4,30.17,West,275,0.0,-999.0,70,0.00,,,0.00,0,Wunderground v.1.15,2013-01-18 03:51:00,
2013-01-17 19:56:00,46.7,37.8,30.18,West,275,0.0,-999.0,71,0.00,,,0.00,0,Wunderground v.1.15,2013-01-18 03:56:00,
2013-01-17 20:01:00,46.3,37.8,30.18,West,275,0.0,-999.0,72,0.00,,,0.00,0,Wunderground v.1.15,2013-01-18 04:01:00,
2013-01-17 20:06:00,46.0,37.5,30.18,West,275,0.0,-999.0,72,0.00,,,0.00,0,Wunderground v.1.15,2013-01-18 04:06:00,
2013-01-17 20:11:00,46.1,37.9,30.18,West,275,0.0,-999.0,73,0.00,,,0.00,0,Wunderground v.1.15,2013-01-18 04:11:00,
2013-01-17 20:16:00,45.7,37.2,30.18,West,275,0.0,-999.0,72,0.00,,,0.00,0,Wunderground v.1.15,2013-01-18 04:16:00,
2013-01-17 20:21:00,45.4,37.2,30.18,West,275,0.0,-999.0,73,0.00,,,0.00,0,Wunderground v.1.15,2013-01-18 04:21:00,
2013-01-17 20:26:00,45.3,37.2,30.18,West,275,0.0,-999.0,73,0.00,,,0.00,0,Wunderground v.1.15,2013-01-18 04:26:00,
2013-01-17 20:31:00,45.2,36.7,30.18,West,275,0.0,-999.0,72,0.00,,,0.00,0,Wunderground v.1.15,2013-01-18 04:31:00,
2013-01-17 20:36:00,45.5,37.0,30.18,West,275,0.0,-999.0,72,0.00,,,0.00,0,Wunderground v.1.15,2013-01-18 04:36:00,
2013-01-17 20:41:00,46.0,37.1,30.18,West,275,0.0,-999.0,71,0.00,,,0.00,0,Wunderground v.1.15,2013-01-18 04:41:00,
2013-01-17 20:44:00,44.3,36.5,30.18,West,275,0.0,-999.0,74,0.00,,,0.00,0,Wunderground v.1.15,2013-01-18 04:44:00,
2013-01-17 20:45:00,44.2,36.4,30.18,West,275,0.0,-999.0,74,0.00,,,0.00,0,Wunderground v.1.15,2013-01-18 04:45:00,
2013-01-17 20:46:00,46.1,36.9,30.18,West,275,0.0,-999.0,70,0.00,,,0.00,0,Wunderground v.1.15,2013-01-18 04:46:00,
2013-01-17 20:47:00,44.1,36.3,30.18,West,275,0.0,-999.0,74,0.00,,,0.00,0,Wunderground v.1.15,2013-01-18 04:47:00,
2013-01-17 20:48:00,44.0,36.2,30.18,West,275,0.0,-999.0,74,0.00,,,0.00,0,Wunderground v.1.15,2013-01-18 04:48:00,
2013-01-17 20:49:00,43.9,36.5,30.18,West,275,0.0,-999.0,75,0.00,,,0.00,0,Wunderground v.1.15,2013-01-18 04:49:00,
2013-01-17 20:50:00,43.9,36.5,30.18,West,275,0.0,-999.0,75,0.00,,,0.00,0,Wunderground v.1.15,2013-01-18 04:50:00,
2013-01-17 20:51:00,45.9,37.0,30.18,West,275,0.0,-999.0,71,0.00,,,0.00,0,Wunderground v.1.15,2013-01-18 04:51:00,
2013-01-17 20:56:00,45.0,36.5,30.18,West,275,0.0,-999.0,72,0.00,,,0.00,0,Wunderground v.1.15,2013-01-18 04:56:00,
2013-01-17 21:05:00,43.9,36.5,30.18,West,275,0.0,-999.0,75,0.00,,,0.00,0,Wunderground v.1.15,2013-01-18 05:05:00,
2013-01-17 21:10:00,44.0,36.6,30.18,West,275,0.0,-999.0,75,0.00,,,0.00,0,Wunderground v.1.15,2013-01-18 05:10:00,
2013-01-17 21:15:00,43.5,36.1,30.18,West,275,0.0,-999.0,75,0.00,,,0.00,0,Wunderground v.1.15,2013-01-18 05:15:00,
2013-01-17 21:20:00,43.2,36.5,30.19,West,275,0.0,-999.0,77,0.00,,,0.00,0,Wunderground v.1.15,2013-01-18 05:20:00,
2013-01-17 21:25:00,43.0,36.3,30.19,West,275,0.0,-999.0,77,0.00,,,0.00,0,Wunderground v.1.15,2013-01-18 05:25:00,